sensor_id;sensor_type;location;lat;lon;timestamp;P1;durP1;ratioP1;P2;durP2;ratioP2
19016;SDS011;9641;51.494;6.670;2024-02-14T00:00:43;8.60;;;2.40;;
19016;SDS011;9641;51.494;6.670;2024-02-14T00:03:10;4.33;;;1.90;;
19016;SDS011;9641;51.494;6.670;2024-02-14T00:05:36;6.90;;;2.83;;
19016;SDS011;9641;51.494;6.670;2024-02-14T00:08:07;3.07;;;2.13;;
19016;SDS011;9641;51.494;6.670;2024-02-14T00:10:34;8.63;;;2.80;;
19016;SDS011;9641;51.494;6.670;2024-02-14T00:13:01;3.50;;;2.70;;
19016;SDS011;9641;51.494;6.670;2024-02-14T00:15:29;5.90;;;2.30;;
19016;SDS011;9641;51.494;6.670;2024-02-14T00:17:55;5.13;;;2.20;;
19016;SDS011;9641;51.494;6.670;2024-02-14T00:20:22;6.10;;;2.63;;
19016;SDS011;9641;51.494;6.670;2024-02-14T00:22:49;3.87;;;2.80;;
19016;SDS011;9641;51.494;6.670;2024-02-14T00:25:18;3.13;;;2.20;;
19016;SDS011;9641;51.494;6.670;2024-02-14T00:27:45;7.40;;;3.07;;
19016;SDS011;9641;51.494;6.670;2024-02-14T00:30:12;2.23;;;1.97;;
19016;SDS011;9641;51.494;6.670;2024-02-14T00:32:39;4.47;;;2.47;;
19016;SDS011;9641;51.494;6.670;2024-02-14T00:35:06;3.23;;;2.53;;
19016;SDS011;9641;51.494;6.670;2024-02-14T00:37:34;6.33;;;2.47;;
19016;SDS011;9641;51.494;6.670;2024-02-14T00:40:00;4.80;;;2.30;;
19016;SDS011;9641;51.494;6.670;2024-02-14T00:42:29;3.30;;;2.20;;
19016;SDS011;9641;51.494;6.670;2024-02-14T00:44:56;4.17;;;2.33;;
19016;SDS011;9641;51.494;6.670;2024-02-14T00:47:23;3.70;;;2.73;;
19016;SDS011;9641;51.494;6.670;2024-02-14T00:49:49;3.33;;;1.97;;
19016;SDS011;9641;51.494;6.670;2024-02-14T00:52:17;4.10;;;2.07;;
19016;SDS011;9641;51.494;6.670;2024-02-14T00:54:43;3.43;;;2.20;;
19016;SDS011;9641;51.494;6.670;2024-02-14T00:57:10;4.23;;;1.90;;
19016;SDS011;9641;51.494;6.670;2024-02-14T00:59:39;4.03;;;2.40;;
19016;SDS011;9641;51.494;6.670;2024-02-14T01:02:05;7.97;;;2.17;;
19016;SDS011;9641;51.494;6.670;2024-02-14T01:04:32;3.63;;;2.73;;
19016;SDS011;9641;51.494;6.670;2024-02-14T01:07:01;2.87;;;1.80;;
19016;SDS011;9641;51.494;6.670;2024-02-14T01:09:28;3.77;;;2.07;;
19016;SDS011;9641;51.494;6.670;2024-02-14T01:11:54;4.37;;;2.17;;
19016;SDS011;9641;51.494;6.670;2024-02-14T01:14:22;4.77;;;2.43;;
19016;SDS011;9641;51.494;6.670;2024-02-14T01:16:50;3.77;;;2.40;;
19016;SDS011;9641;51.494;6.670;2024-02-14T01:19:17;3.23;;;2.43;;
19016;SDS011;9641;51.494;6.670;2024-02-14T01:21:45;4.93;;;2.70;;
19016;SDS011;9641;51.494;6.670;2024-02-14T01:24:13;2.87;;;2.10;;
19016;SDS011;9641;51.494;6.670;2024-02-14T01:26:40;10.07;;;2.63;;
19016;SDS011;9641;51.494;6.670;2024-02-14T01:29:07;3.33;;;2.13;;
19016;SDS011;9641;51.494;6.670;2024-02-14T01:31:34;5.73;;;2.20;;
19016;SDS011;9641;51.494;6.670;2024-02-14T01:34:02;3.80;;;1.83;;
19016;SDS011;9641;51.494;6.670;2024-02-14T01:36:29;3.00;;;2.20;;
19016;SDS011;9641;51.494;6.670;2024-02-14T01:38:56;3.43;;;2.20;;
19016;SDS011;9641;51.494;6.670;2024-02-14T01:41:23;4.83;;;1.73;;
19016;SDS011;9641;51.494;6.670;2024-02-14T01:43:50;2.73;;;1.73;;
19016;SDS011;9641;51.494;6.670;2024-02-14T01:46:18;8.20;;;2.50;;
19016;SDS011;9641;51.494;6.670;2024-02-14T01:48:45;8.60;;;1.93;;
19016;SDS011;9641;51.494;6.670;2024-02-14T01:51:13;7.77;;;1.73;;
19016;SDS011;9641;51.494;6.670;2024-02-14T01:53:46;2.07;;;1.87;;
19016;SDS011;9641;51.494;6.670;2024-02-14T01:56:13;2.23;;;1.90;;
19016;SDS011;9641;51.494;6.670;2024-02-14T01:58:41;1.63;;;1.50;;
19016;SDS011;9641;51.494;6.670;2024-02-14T02:01:09;3.07;;;1.80;;
19016;SDS011;9641;51.494;6.670;2024-02-14T02:03:37;1.77;;;1.60;;
19016;SDS011;9641;51.494;6.670;2024-02-14T02:06:04;4.97;;;1.90;;
19016;SDS011;9641;51.494;6.670;2024-02-14T02:08:33;1.93;;;1.57;;
19016;SDS011;9641;51.494;6.670;2024-02-14T02:11:00;3.17;;;1.67;;
19016;SDS011;9641;51.494;6.670;2024-02-14T02:13:28;1.80;;;1.70;;
19016;SDS011;9641;51.494;6.670;2024-02-14T02:15:54;2.07;;;1.90;;
19016;SDS011;9641;51.494;6.670;2024-02-14T02:18:22;2.87;;;1.73;;
19016;SDS011;9641;51.494;6.670;2024-02-14T02:20:51;2.23;;;1.73;;
19016;SDS011;9641;51.494;6.670;2024-02-14T02:23:19;1.87;;;1.77;;
19016;SDS011;9641;51.494;6.670;2024-02-14T02:25:46;3.20;;;1.73;;
19016;SDS011;9641;51.494;6.670;2024-02-14T02:28:13;3.20;;;2.03;;
19016;SDS011;9641;51.494;6.670;2024-02-14T02:30:40;2.07;;;1.70;;
19016;SDS011;9641;51.494;6.670;2024-02-14T02:33:07;2.10;;;1.80;;
19016;SDS011;9641;51.494;6.670;2024-02-14T02:35:34;3.80;;;2.03;;
19016;SDS011;9641;51.494;6.670;2024-02-14T02:38:01;2.60;;;2.00;;
19016;SDS011;9641;51.494;6.670;2024-02-14T02:40:29;3.77;;;1.80;;
19016;SDS011;9641;51.494;6.670;2024-02-14T02:42:56;3.57;;;2.03;;
19016;SDS011;9641;51.494;6.670;2024-02-14T02:45:24;1.87;;;1.70;;
19016;SDS011;9641;51.494;6.670;2024-02-14T02:47:51;2.10;;;1.90;;
19016;SDS011;9641;51.494;6.670;2024-02-14T02:50:17;5.00;;;2.30;;
19016;SDS011;9641;51.494;6.670;2024-02-14T02:52:44;2.00;;;1.80;;
19016;SDS011;9641;51.494;6.670;2024-02-14T02:55:11;4.93;;;2.07;;
19016;SDS011;9641;51.494;6.670;2024-02-14T02:57:42;2.90;;;1.93;;
19016;SDS011;9641;51.494;6.670;2024-02-14T03:00:10;3.57;;;2.00;;
19016;SDS011;9641;51.494;6.670;2024-02-14T03:02:39;3.33;;;1.70;;
19016;SDS011;9641;51.494;6.670;2024-02-14T03:05:09;3.60;;;2.10;;
19016;SDS011;9641;51.494;6.670;2024-02-14T03:07:42;6.00;;;2.20;;
19016;SDS011;9641;51.494;6.670;2024-02-14T03:10:10;2.10;;;1.90;;
19016;SDS011;9641;51.494;6.670;2024-02-14T03:12:38;3.43;;;2.00;;
19016;SDS011;9641;51.494;6.670;2024-02-14T03:15:08;2.50;;;2.23;;
19016;SDS011;9641;51.494;6.670;2024-02-14T03:17:35;5.17;;;2.47;;
19016;SDS011;9641;51.494;6.670;2024-02-14T03:20:02;2.30;;;2.10;;
19016;SDS011;9641;51.494;6.670;2024-02-14T03:22:35;5.27;;;2.60;;
19016;SDS011;9641;51.494;6.670;2024-02-14T03:25:02;4.90;;;2.30;;
19016;SDS011;9641;51.494;6.670;2024-02-14T03:27:29;2.67;;;2.27;;
19016;SDS011;9641;51.494;6.670;2024-02-14T03:29:56;3.37;;;2.30;;
19016;SDS011;9641;51.494;6.670;2024-02-14T03:32:26;2.80;;;2.53;;
19016;SDS011;9641;51.494;6.670;2024-02-14T03:34:52;3.07;;;2.60;;
19016;SDS011;9641;51.494;6.670;2024-02-14T03:37:19;2.80;;;2.40;;
19016;SDS011;9641;51.494;6.670;2024-02-14T03:39:46;2.83;;;2.57;;
19016;SDS011;9641;51.494;6.670;2024-02-14T03:42:13;2.33;;;2.23;;
19016;SDS011;9641;51.494;6.670;2024-02-14T03:44:40;3.13;;;2.30;;
19016;SDS011;9641;51.494;6.670;2024-02-14T03:47:07;5.30;;;2.73;;
19016;SDS011;9641;51.494;6.670;2024-02-14T03:49:35;3.67;;;2.40;;
19016;SDS011;9641;51.494;6.670;2024-02-14T03:52:02;9.33;;;3.10;;
19016;SDS011;9641;51.494;6.670;2024-02-14T03:54:34;3.70;;;2.60;;
19016;SDS011;9641;51.494;6.670;2024-02-14T03:57:00;7.27;;;2.67;;
19016;SDS011;9641;51.494;6.670;2024-02-14T03:59:27;2.80;;;2.60;;
19016;SDS011;9641;51.494;6.670;2024-02-14T04:01:54;4.37;;;2.53;;
19016;SDS011;9641;51.494;6.670;2024-02-14T04:04:23;5.23;;;3.17;;
19016;SDS011;9641;51.494;6.670;2024-02-14T04:06:51;4.17;;;2.57;;
19016;SDS011;9641;51.494;6.670;2024-02-14T04:09:18;4.73;;;2.90;;
19016;SDS011;9641;51.494;6.670;2024-02-14T04:11:45;2.70;;;2.40;;
19016;SDS011;9641;51.494;6.670;2024-02-14T04:14:13;3.17;;;2.53;;
19016;SDS011;9641;51.494;6.670;2024-02-14T04:16:40;4.77;;;2.80;;
19016;SDS011;9641;51.494;6.670;2024-02-14T04:19:07;4.50;;;2.50;;
19016;SDS011;9641;51.494;6.670;2024-02-14T04:21:36;2.63;;;2.37;;
19016;SDS011;9641;51.494;6.670;2024-02-14T04:24:04;5.37;;;2.83;;
19016;SDS011;9641;51.494;6.670;2024-02-14T04:26:31;4.60;;;2.90;;
19016;SDS011;9641;51.494;6.670;2024-02-14T04:28:59;5.27;;;3.00;;
19016;SDS011;9641;51.494;6.670;2024-02-14T04:31:27;3.87;;;3.30;;
19016;SDS011;9641;51.494;6.670;2024-02-14T04:33:54;4.40;;;3.40;;
19016;SDS011;9641;51.494;6.670;2024-02-14T04:36:21;5.43;;;3.03;;
19016;SDS011;9641;51.494;6.670;2024-02-14T04:38:49;4.80;;;3.07;;
19016;SDS011;9641;51.494;6.670;2024-02-14T04:41:18;7.83;;;3.37;;
19016;SDS011;9641;51.494;6.670;2024-02-14T04:43:46;7.03;;;3.23;;
19016;SDS011;9641;51.494;6.670;2024-02-14T04:46:13;5.77;;;3.10;;
19016;SDS011;9641;51.494;6.670;2024-02-14T04:48:40;4.57;;;2.90;;
19016;SDS011;9641;51.494;6.670;2024-02-14T04:51:07;5.50;;;2.80;;
19016;SDS011;9641;51.494;6.670;2024-02-14T04:53:34;4.23;;;3.17;;
19016;SDS011;9641;51.494;6.670;2024-02-14T04:56:01;3.87;;;3.47;;
19016;SDS011;9641;51.494;6.670;2024-02-14T04:58:29;3.37;;;3.07;;
19016;SDS011;9641;51.494;6.670;2024-02-14T05:00:56;3.67;;;2.93;;
19016;SDS011;9641;51.494;6.670;2024-02-14T05:03:23;5.07;;;3.77;;
19016;SDS011;9641;51.494;6.670;2024-02-14T05:05:51;6.03;;;3.20;;
19016;SDS011;9641;51.494;6.670;2024-02-14T05:08:18;3.80;;;2.87;;
19016;SDS011;9641;51.494;6.670;2024-02-14T05:10:45;4.47;;;2.90;;
19016;SDS011;9641;51.494;6.670;2024-02-14T05:13:13;5.77;;;2.97;;
19016;SDS011;9641;51.494;6.670;2024-02-14T05:15:42;4.43;;;3.20;;
19016;SDS011;9641;51.494;6.670;2024-02-14T05:18:09;3.50;;;3.20;;
19016;SDS011;9641;51.494;6.670;2024-02-14T05:20:36;3.80;;;3.37;;
19016;SDS011;9641;51.494;6.670;2024-02-14T05:23:03;4.27;;;3.23;;
19016;SDS011;9641;51.494;6.670;2024-02-14T05:25:30;3.70;;;3.37;;
19016;SDS011;9641;51.494;6.670;2024-02-14T05:27:58;5.83;;;3.27;;
19016;SDS011;9641;51.494;6.670;2024-02-14T05:30:26;3.43;;;3.13;;
19016;SDS011;9641;51.494;6.670;2024-02-14T05:32:54;6.13;;;3.67;;
19016;SDS011;9641;51.494;6.670;2024-02-14T05:35:21;5.20;;;3.43;;
19016;SDS011;9641;51.494;6.670;2024-02-14T05:37:48;7.87;;;3.40;;
19016;SDS011;9641;51.494;6.670;2024-02-14T05:40:16;4.67;;;3.60;;
19016;SDS011;9641;51.494;6.670;2024-02-14T05:42:44;5.00;;;3.33;;
19016;SDS011;9641;51.494;6.670;2024-02-14T05:45:10;6.67;;;3.83;;
19016;SDS011;9641;51.494;6.670;2024-02-14T05:47:38;4.03;;;3.63;;
19016;SDS011;9641;51.494;6.670;2024-02-14T05:50:07;6.17;;;3.70;;
19016;SDS011;9641;51.494;6.670;2024-02-14T05:52:36;4.37;;;3.43;;
19016;SDS011;9641;51.494;6.670;2024-02-14T05:55:03;7.63;;;4.30;;
19016;SDS011;9641;51.494;6.670;2024-02-14T05:57:31;6.40;;;4.03;;
19016;SDS011;9641;51.494;6.670;2024-02-14T05:59:57;4.77;;;3.87;;
19016;SDS011;9641;51.494;6.670;2024-02-14T06:02:24;5.47;;;4.00;;
19016;SDS011;9641;51.494;6.670;2024-02-14T06:04:51;6.10;;;4.77;;
19016;SDS011;9641;51.494;6.670;2024-02-14T06:07:19;5.53;;;4.67;;
19016;SDS011;9641;51.494;6.670;2024-02-14T06:09:46;7.13;;;4.67;;
19016;SDS011;9641;51.494;6.670;2024-02-14T06:12:13;6.47;;;4.80;;
19016;SDS011;9641;51.494;6.670;2024-02-14T06:14:40;6.70;;;4.73;;
19016;SDS011;9641;51.494;6.670;2024-02-14T06:17:06;7.63;;;5.43;;
19016;SDS011;9641;51.494;6.670;2024-02-14T06:19:33;9.60;;;5.33;;
19016;SDS011;9641;51.494;6.670;2024-02-14T06:22:01;10.43;;;4.60;;
19016;SDS011;9641;51.494;6.670;2024-02-14T06:24:29;8.70;;;5.30;;
19016;SDS011;9641;51.494;6.670;2024-02-14T06:26:57;7.80;;;6.10;;
19016;SDS011;9641;51.494;6.670;2024-02-14T06:29:24;9.07;;;5.73;;
19016;SDS011;9641;51.494;6.670;2024-02-14T06:31:51;9.03;;;5.77;;
19016;SDS011;9641;51.494;6.670;2024-02-14T06:34:19;7.37;;;5.37;;
19016;SDS011;9641;51.494;6.670;2024-02-14T06:36:46;8.60;;;5.40;;
19016;SDS011;9641;51.494;6.670;2024-02-14T06:39:13;6.43;;;5.10;;
19016;SDS011;9641;51.494;6.670;2024-02-14T06:41:41;8.20;;;5.80;;
19016;SDS011;9641;51.494;6.670;2024-02-14T06:44:08;6.67;;;5.47;;
19016;SDS011;9641;51.494;6.670;2024-02-14T06:46:35;7.20;;;5.80;;
19016;SDS011;9641;51.494;6.670;2024-02-14T06:49:03;8.47;;;5.77;;
19016;SDS011;9641;51.494;6.670;2024-02-14T06:51:30;6.27;;;5.40;;
19016;SDS011;9641;51.494;6.670;2024-02-14T06:53:56;7.67;;;5.13;;
19016;SDS011;9641;51.494;6.670;2024-02-14T06:56:23;7.90;;;5.23;;
19016;SDS011;9641;51.494;6.670;2024-02-14T06:58:51;7.73;;;5.63;;
19016;SDS011;9641;51.494;6.670;2024-02-14T07:01:24;7.13;;;5.77;;
19016;SDS011;9641;51.494;6.670;2024-02-14T07:03:52;7.20;;;5.60;;
19016;SDS011;9641;51.494;6.670;2024-02-14T07:06:19;8.83;;;5.97;;
19016;SDS011;9641;51.494;6.670;2024-02-14T07:08:46;7.10;;;5.83;;
19016;SDS011;9641;51.494;6.670;2024-02-14T07:11:14;9.07;;;5.60;;
19016;SDS011;9641;51.494;6.670;2024-02-14T07:13:41;6.57;;;5.83;;
19016;SDS011;9641;51.494;6.670;2024-02-14T07:16:10;7.97;;;5.73;;
19016;SDS011;9641;51.494;6.670;2024-02-14T07:18:37;10.27;;;5.87;;
19016;SDS011;9641;51.494;6.670;2024-02-14T07:21:05;9.10;;;5.97;;
19016;SDS011;9641;51.494;6.670;2024-02-14T07:23:33;7.43;;;6.33;;
19016;SDS011;9641;51.494;6.670;2024-02-14T07:26:00;8.50;;;5.73;;
19016;SDS011;9641;51.494;6.670;2024-02-14T07:28:27;11.37;;;5.60;;
19016;SDS011;9641;51.494;6.670;2024-02-14T07:30:55;6.73;;;5.40;;
19016;SDS011;9641;51.494;6.670;2024-02-14T07:33:23;7.27;;;5.77;;
19016;SDS011;9641;51.494;6.670;2024-02-14T07:35:50;10.27;;;6.70;;
19016;SDS011;9641;51.494;6.670;2024-02-14T07:38:17;11.00;;;6.40;;
19016;SDS011;9641;51.494;6.670;2024-02-14T07:40:44;8.73;;;6.30;;
19016;SDS011;9641;51.494;6.670;2024-02-14T07:43:11;11.43;;;7.47;;
19016;SDS011;9641;51.494;6.670;2024-02-14T07:45:38;9.57;;;6.23;;
19016;SDS011;9641;51.494;6.670;2024-02-14T07:48:05;8.90;;;5.80;;
19016;SDS011;9641;51.494;6.670;2024-02-14T07:50:34;8.63;;;5.90;;
19016;SDS011;9641;51.494;6.670;2024-02-14T07:53:02;13.07;;;6.40;;
19016;SDS011;9641;51.494;6.670;2024-02-14T07:55:29;7.70;;;6.00;;
19016;SDS011;9641;51.494;6.670;2024-02-14T07:57:56;10.37;;;5.83;;
19016;SDS011;9641;51.494;6.670;2024-02-14T08:00:24;7.57;;;6.27;;
19016;SDS011;9641;51.494;6.670;2024-02-14T08:02:52;7.37;;;5.60;;
19016;SDS011;9641;51.494;6.670;2024-02-14T08:05:19;8.10;;;5.57;;
19016;SDS011;9641;51.494;6.670;2024-02-14T08:07:47;7.67;;;5.10;;
19016;SDS011;9641;51.494;6.670;2024-02-14T08:10:14;8.53;;;5.27;;
19016;SDS011;9641;51.494;6.670;2024-02-14T08:12:41;7.60;;;5.03;;
19016;SDS011;9641;51.494;6.670;2024-02-14T08:15:08;10.13;;;5.37;;
19016;SDS011;9641;51.494;6.670;2024-02-14T08:17:35;9.40;;;5.47;;
19016;SDS011;9641;51.494;6.670;2024-02-14T08:20:04;10.43;;;5.33;;
19016;SDS011;9641;51.494;6.670;2024-02-14T08:22:32;5.37;;;4.33;;
19016;SDS011;9641;51.494;6.670;2024-02-14T08:25:00;11.43;;;5.17;;
19016;SDS011;9641;51.494;6.670;2024-02-14T08:27:27;5.93;;;4.17;;
19016;SDS011;9641;51.494;6.670;2024-02-14T08:29:56;6.57;;;4.13;;
19016;SDS011;9641;51.494;6.670;2024-02-14T08:32:23;4.00;;;3.20;;
19016;SDS011;9641;51.494;6.670;2024-02-14T08:34:50;4.47;;;3.70;;
19016;SDS011;9641;51.494;6.670;2024-02-14T08:37:17;7.50;;;4.10;;
19016;SDS011;9641;51.494;6.670;2024-02-14T08:39:43;7.80;;;4.07;;
19016;SDS011;9641;51.494;6.670;2024-02-14T08:42:12;7.03;;;4.10;;
19016;SDS011;9641;51.494;6.670;2024-02-14T08:44:38;4.83;;;3.80;;
19016;SDS011;9641;51.494;6.670;2024-02-14T08:47:06;7.13;;;4.13;;
19016;SDS011;9641;51.494;6.670;2024-02-14T08:49:34;8.17;;;4.33;;
19016;SDS011;9641;51.494;6.670;2024-02-14T08:52:01;6.80;;;3.80;;
19016;SDS011;9641;51.494;6.670;2024-02-14T08:54:29;6.57;;;4.13;;
19016;SDS011;9641;51.494;6.670;2024-02-14T08:56:57;7.73;;;3.80;;
19016;SDS011;9641;51.494;6.670;2024-02-14T08:59:26;10.50;;;5.07;;
19016;SDS011;9641;51.494;6.670;2024-02-14T09:01:53;11.77;;;4.70;;
19016;SDS011;9641;51.494;6.670;2024-02-14T09:04:22;5.97;;;4.67;;
19016;SDS011;9641;51.494;6.670;2024-02-14T09:06:49;8.53;;;4.47;;
19016;SDS011;9641;51.494;6.670;2024-02-14T09:09:15;6.90;;;4.83;;
19016;SDS011;9641;51.494;6.670;2024-02-14T09:11:44;10.20;;;4.50;;
19016;SDS011;9641;51.494;6.670;2024-02-14T09:14:11;8.93;;;4.20;;
19016;SDS011;9641;51.494;6.670;2024-02-14T09:16:39;7.70;;;4.30;;
19016;SDS011;9641;51.494;6.670;2024-02-14T09:19:06;9.90;;;4.17;;
19016;SDS011;9641;51.494;6.670;2024-02-14T09:21:35;8.23;;;4.00;;
19016;SDS011;9641;51.494;6.670;2024-02-14T09:24:02;9.93;;;4.20;;
19016;SDS011;9641;51.494;6.670;2024-02-14T09:26:29;6.97;;;4.23;;
19016;SDS011;9641;51.494;6.670;2024-02-14T09:28:56;6.33;;;4.10;;
19016;SDS011;9641;51.494;6.670;2024-02-14T09:31:23;6.33;;;3.67;;
19016;SDS011;9641;51.494;6.670;2024-02-14T09:33:51;6.00;;;4.33;;
19016;SDS011;9641;51.494;6.670;2024-02-14T09:36:22;8.10;;;4.53;;
19016;SDS011;9641;51.494;6.670;2024-02-14T09:38:49;7.67;;;3.70;;
19016;SDS011;9641;51.494;6.670;2024-02-14T09:41:22;8.60;;;4.00;;
19016;SDS011;9641;51.494;6.670;2024-02-14T09:43:54;7.37;;;3.70;;
19016;SDS011;9641;51.494;6.670;2024-02-14T09:46:21;8.07;;;3.00;;
19016;SDS011;9641;51.494;6.670;2024-02-14T09:48:52;7.63;;;3.57;;
19016;SDS011;9641;51.494;6.670;2024-02-14T09:51:21;5.27;;;2.77;;
19016;SDS011;9641;51.494;6.670;2024-02-14T09:53:50;5.60;;;2.90;;
19016;SDS011;9641;51.494;6.670;2024-02-14T09:56:19;6.23;;;3.60;;
19016;SDS011;9641;51.494;6.670;2024-02-14T09:58:47;5.13;;;3.00;;
19016;SDS011;9641;51.494;6.670;2024-02-14T10:01:21;8.07;;;3.40;;
19016;SDS011;9641;51.494;6.670;2024-02-14T10:03:49;6.27;;;3.00;;
19016;SDS011;9641;51.494;6.670;2024-02-14T10:06:18;5.47;;;2.67;;
19016;SDS011;9641;51.494;6.670;2024-02-14T10:08:45;6.00;;;2.60;;
19016;SDS011;9641;51.494;6.670;2024-02-14T10:11:13;7.87;;;2.70;;
19016;SDS011;9641;51.494;6.670;2024-02-14T10:13:43;8.97;;;3.00;;
19016;SDS011;9641;51.494;6.670;2024-02-14T10:16:12;8.50;;;2.97;;
19016;SDS011;9641;51.494;6.670;2024-02-14T10:18:39;5.70;;;2.70;;
19016;SDS011;9641;51.494;6.670;2024-02-14T10:21:06;5.70;;;2.67;;
19016;SDS011;9641;51.494;6.670;2024-02-14T10:23:36;4.97;;;2.90;;
19016;SDS011;9641;51.494;6.670;2024-02-14T10:26:03;8.57;;;3.30;;
19016;SDS011;9641;51.494;6.670;2024-02-14T10:28:30;5.93;;;2.70;;
19016;SDS011;9641;51.494;6.670;2024-02-14T10:30:59;4.73;;;2.53;;
19016;SDS011;9641;51.494;6.670;2024-02-14T10:33:27;5.93;;;2.97;;
19016;SDS011;9641;51.494;6.670;2024-02-14T10:35:55;6.70;;;3.10;;
19016;SDS011;9641;51.494;6.670;2024-02-14T10:38:24;5.23;;;2.70;;
19016;SDS011;9641;51.494;6.670;2024-02-14T10:40:53;4.93;;;2.73;;
19016;SDS011;9641;51.494;6.670;2024-02-14T10:43:21;5.80;;;3.47;;
19016;SDS011;9641;51.494;6.670;2024-02-14T10:45:49;6.40;;;3.60;;
19016;SDS011;9641;51.494;6.670;2024-02-14T10:48:18;4.77;;;3.13;;
19016;SDS011;9641;51.494;6.670;2024-02-14T10:50:50;6.33;;;2.90;;
19016;SDS011;9641;51.494;6.670;2024-02-14T10:53:20;10.70;;;3.40;;
19016;SDS011;9641;51.494;6.670;2024-02-14T10:55:49;5.03;;;3.10;;
19016;SDS011;9641;51.494;6.670;2024-02-14T10:58:19;4.47;;;3.00;;
19016;SDS011;9641;51.494;6.670;2024-02-14T11:00:47;5.63;;;2.70;;
19016;SDS011;9641;51.494;6.670;2024-02-14T11:03:14;2.50;;;2.30;;
19016;SDS011;9641;51.494;6.670;2024-02-14T11:05:42;5.27;;;2.70;;
19016;SDS011;9641;51.494;6.670;2024-02-14T11:08:13;6.90;;;2.57;;
19016;SDS011;9641;51.494;6.670;2024-02-14T11:10:40;5.20;;;2.70;;
19016;SDS011;9641;51.494;6.670;2024-02-14T11:13:12;4.83;;;2.30;;
19016;SDS011;9641;51.494;6.670;2024-02-14T11:15:44;3.20;;;2.70;;
19016;SDS011;9641;51.494;6.670;2024-02-14T11:18:11;6.70;;;2.77;;
19016;SDS011;9641;51.494;6.670;2024-02-14T11:20:38;4.40;;;2.60;;
19016;SDS011;9641;51.494;6.670;2024-02-14T11:23:07;7.17;;;2.90;;
19016;SDS011;9641;51.494;6.670;2024-02-14T11:25:36;4.93;;;2.10;;
19016;SDS011;9641;51.494;6.670;2024-02-14T11:28:12;4.07;;;2.43;;
19016;SDS011;9641;51.494;6.670;2024-02-14T11:30:41;3.27;;;2.50;;
19016;SDS011;9641;51.494;6.670;2024-02-14T11:33:15;4.33;;;2.40;;
19016;SDS011;9641;51.494;6.670;2024-02-14T11:35:44;3.90;;;2.23;;
19016;SDS011;9641;51.494;6.670;2024-02-14T11:38:12;3.87;;;2.27;;
19016;SDS011;9641;51.494;6.670;2024-02-14T11:40:40;2.43;;;2.23;;
19016;SDS011;9641;51.494;6.670;2024-02-14T11:43:10;2.30;;;2.00;;
19016;SDS011;9641;51.494;6.670;2024-02-14T11:45:38;2.40;;;2.10;;
19016;SDS011;9641;51.494;6.670;2024-02-14T11:48:08;2.83;;;2.00;;
19016;SDS011;9641;51.494;6.670;2024-02-14T11:50:38;2.60;;;2.20;;
19016;SDS011;9641;51.494;6.670;2024-02-14T11:53:06;3.00;;;2.27;;
19016;SDS011;9641;51.494;6.670;2024-02-14T11:55:35;4.80;;;3.07;;
19016;SDS011;9641;51.494;6.670;2024-02-14T11:58:03;2.33;;;2.00;;
19016;SDS011;9641;51.494;6.670;2024-02-14T12:00:33;2.30;;;1.90;;
19016;SDS011;9641;51.494;6.670;2024-02-14T12:03:03;4.23;;;2.00;;
19016;SDS011;9641;51.494;6.670;2024-02-14T12:05:34;4.07;;;1.90;;
19016;SDS011;9641;51.494;6.670;2024-02-14T12:08:02;2.23;;;1.53;;
19016;SDS011;9641;51.494;6.670;2024-02-14T12:10:31;5.03;;;1.60;;
19016;SDS011;9641;51.494;6.670;2024-02-14T12:13:05;4.67;;;2.00;;
19016;SDS011;9641;51.494;6.670;2024-02-14T12:15:39;3.30;;;1.87;;
19016;SDS011;9641;51.494;6.670;2024-02-14T12:18:07;4.43;;;2.17;;
19016;SDS011;9641;51.494;6.670;2024-02-14T12:20:37;3.33;;;1.73;;
19016;SDS011;9641;51.494;6.670;2024-02-14T12:23:04;3.07;;;1.80;;
19016;SDS011;9641;51.494;6.670;2024-02-14T12:25:31;5.30;;;2.00;;
19016;SDS011;9641;51.494;6.670;2024-02-14T12:27:59;6.33;;;1.83;;
19016;SDS011;9641;51.494;6.670;2024-02-14T12:30:28;3.07;;;1.57;;
19016;SDS011;9641;51.494;6.670;2024-02-14T12:33:10;2.03;;;1.40;;
19016;SDS011;9641;51.494;6.670;2024-02-14T12:35:41;4.27;;;1.53;;
19016;SDS011;9641;51.494;6.670;2024-02-14T12:38:09;3.07;;;1.90;;
19016;SDS011;9641;51.494;6.670;2024-02-14T12:40:36;3.83;;;1.93;;
19016;SDS011;9641;51.494;6.670;2024-02-14T12:43:03;3.40;;;1.90;;
19016;SDS011;9641;51.494;6.670;2024-02-14T12:45:31;5.00;;;2.07;;
19016;SDS011;9641;51.494;6.670;2024-02-14T12:47:58;4.03;;;1.60;;
19016;SDS011;9641;51.494;6.670;2024-02-14T12:50:26;3.83;;;1.80;;
19016;SDS011;9641;51.494;6.670;2024-02-14T12:52:54;2.43;;;1.40;;
19016;SDS011;9641;51.494;6.670;2024-02-14T12:55:23;2.40;;;1.80;;
19016;SDS011;9641;51.494;6.670;2024-02-14T12:57:51;2.73;;;1.90;;
19016;SDS011;9641;51.494;6.670;2024-02-14T13:00:18;2.77;;;1.60;;
19016;SDS011;9641;51.494;6.670;2024-02-14T13:02:47;1.83;;;1.73;;
19016;SDS011;9641;51.494;6.670;2024-02-14T13:05:15;2.23;;;1.70;;
19016;SDS011;9641;51.494;6.670;2024-02-14T13:07:42;4.43;;;1.60;;
19016;SDS011;9641;51.494;6.670;2024-02-14T13:10:11;2.37;;;1.80;;
19016;SDS011;9641;51.494;6.670;2024-02-14T13:12:39;4.00;;;1.80;;
19016;SDS011;9641;51.494;6.670;2024-02-14T13:15:08;4.37;;;1.80;;
19016;SDS011;9641;51.494;6.670;2024-02-14T13:17:36;4.10;;;2.10;;
19016;SDS011;9641;51.494;6.670;2024-02-14T13:20:03;2.53;;;1.50;;
19016;SDS011;9641;51.494;6.670;2024-02-14T13:22:32;1.63;;;1.53;;
19016;SDS011;9641;51.494;6.670;2024-02-14T13:24:59;2.10;;;1.90;;
19016;SDS011;9641;51.494;6.670;2024-02-14T13:27:29;1.70;;;1.60;;
19016;SDS011;9641;51.494;6.670;2024-02-14T13:29:58;3.03;;;1.40;;
19016;SDS011;9641;51.494;6.670;2024-02-14T13:32:25;2.60;;;1.47;;
19016;SDS011;9641;51.494;6.670;2024-02-14T13:34:53;7.67;;;4.43;;
19016;SDS011;9641;51.494;6.670;2024-02-14T13:37:21;11.70;;;6.67;;
19016;SDS011;9641;51.494;6.670;2024-02-14T13:39:49;6.67;;;3.30;;
19016;SDS011;9641;51.494;6.670;2024-02-14T13:42:17;1.70;;;1.60;;
19016;SDS011;9641;51.494;6.670;2024-02-14T13:44:46;4.73;;;2.37;;
19016;SDS011;9641;51.494;6.670;2024-02-14T13:47:14;2.50;;;2.30;;
19016;SDS011;9641;51.494;6.670;2024-02-14T13:49:45;2.57;;;2.37;;
19016;SDS011;9641;51.494;6.670;2024-02-14T13:52:12;4.20;;;2.10;;
19016;SDS011;9641;51.494;6.670;2024-02-14T13:54:40;2.30;;;2.10;;
19016;SDS011;9641;51.494;6.670;2024-02-14T13:57:09;2.40;;;2.20;;
19016;SDS011;9641;51.494;6.670;2024-02-14T13:59:37;2.40;;;2.30;;
19016;SDS011;9641;51.494;6.670;2024-02-14T14:02:06;2.10;;;1.97;;
19016;SDS011;9641;51.494;6.670;2024-02-14T14:04:35;2.23;;;2.00;;
19016;SDS011;9641;51.494;6.670;2024-02-14T14:07:03;2.10;;;2.00;;
19016;SDS011;9641;51.494;6.670;2024-02-14T14:09:31;4.10;;;2.00;;
19016;SDS011;9641;51.494;6.670;2024-02-14T14:12:00;3.50;;;2.20;;
19016;SDS011;9641;51.494;6.670;2024-02-14T14:14:28;3.23;;;2.00;;
19016;SDS011;9641;51.494;6.670;2024-02-14T14:16:55;2.00;;;1.90;;
19016;SDS011;9641;51.494;6.670;2024-02-14T14:19:25;2.27;;;2.10;;
19016;SDS011;9641;51.494;6.670;2024-02-14T14:21:53;3.23;;;1.90;;
19016;SDS011;9641;51.494;6.670;2024-02-14T14:24:23;2.60;;;2.40;;
19016;SDS011;9641;51.494;6.670;2024-02-14T14:26:52;3.93;;;2.03;;
19016;SDS011;9641;51.494;6.670;2024-02-14T14:29:19;2.83;;;2.00;;
19016;SDS011;9641;51.494;6.670;2024-02-14T14:31:48;2.93;;;2.20;;
19016;SDS011;9641;51.494;6.670;2024-02-14T14:34:15;4.83;;;2.53;;
19016;SDS011;9641;51.494;6.670;2024-02-14T14:36:48;2.83;;;2.43;;
19016;SDS011;9641;51.494;6.670;2024-02-14T14:39:20;2.47;;;2.37;;
19016;SDS011;9641;51.494;6.670;2024-02-14T14:41:47;4.93;;;2.10;;
19016;SDS011;9641;51.494;6.670;2024-02-14T14:44:18;2.27;;;2.07;;
19016;SDS011;9641;51.494;6.670;2024-02-14T14:46:46;1.90;;;1.80;;
19016;SDS011;9641;51.494;6.670;2024-02-14T14:49:15;3.07;;;1.67;;
19016;SDS011;9641;51.494;6.670;2024-02-14T14:51:43;1.93;;;1.73;;
19016;SDS011;9641;51.494;6.670;2024-02-14T14:54:14;2.20;;;2.00;;
19016;SDS011;9641;51.494;6.670;2024-02-14T14:56:42;1.83;;;1.73;;
19016;SDS011;9641;51.494;6.670;2024-02-14T14:59:11;1.73;;;1.63;;
19016;SDS011;9641;51.494;6.670;2024-02-14T15:01:40;3.77;;;1.80;;
19016;SDS011;9641;51.494;6.670;2024-02-14T15:04:07;1.93;;;1.53;;